createdAt,value
2022-08-25T08:53:57.526Z,27.30
2022-08-25T08:56:30.790Z,25.30
2022-08-25T08:59:05.592Z,25.10
2022-08-25T09:01:43.141Z,25.80
2022-08-25T09:04:16.451Z,25.20
2022-08-25T09:06:46.796Z,25.30
2022-08-25T09:09:21.641Z,25.40
2022-08-25T09:12:00.997Z,25.50
2022-08-25T09:14:45.754Z,25.30
2022-08-25T09:40:54.865Z,26.00
2022-08-25T09:43:32.049Z,26.90
2022-08-25T09:46:02.770Z,27.20
2022-08-25T09:48:39.754Z,27.40
2022-08-25T09:51:18.846Z,27.10
2022-08-25T09:56:22.837Z,26.50
2022-08-25T09:58:51.684Z,26.00
2022-08-25T10:01:22.490Z,25.80
2022-08-25T10:04:02.475Z,26.10
2022-08-25T10:06:36.678Z,25.90
2022-08-25T10:09:08.593Z,27.10
2022-08-25T10:11:43.533Z,27.40
2022-08-25T10:14:28.711Z,27.90
2022-08-25T10:17:17.146Z,28.10
2022-08-25T10:19:45.545Z,28.50
2022-08-25T11:01:43.786Z,28.60
2022-08-25T11:04:17.218Z,28.90
2022-08-25T11:06:54.824Z,29.50
2022-08-25T12:45:46.414Z,29.70
2022-08-25T13:07:17.400Z,31.40
2022-08-25T13:10:19.550Z,31.30
2022-08-25T13:12:53.628Z,31.00
2022-08-25T13:15:35.307Z,31.40
2022-08-25T13:18:21.235Z,31.40
2022-08-25T13:20:52.149Z,31.30
2022-08-25T13:23:30.026Z,30.30
2022-08-25T13:25:59.879Z,30.40
2022-08-25T13:28:32.604Z,29.70
2022-08-25T13:31:06.215Z,30.10
2022-08-25T13:33:36.289Z,30.30
2022-08-25T13:36:34.635Z,30.10
2022-08-25T13:39:13.765Z,29.60
2022-08-25T13:41:52.150Z,30.60
2022-08-25T13:44:26.643Z,30.70
2022-08-25T13:47:08.955Z,30.50
2022-08-25T13:49:38.399Z,31.20
2022-08-25T13:52:08.208Z,31.00
2022-08-25T13:54:41.107Z,30.50
2022-08-25T13:57:19.150Z,30.60
2022-08-25T13:59:52.122Z,30.70
2022-08-25T14:02:42.190Z,31.00
2022-08-25T14:05:14.270Z,31.40
2022-08-25T14:08:03.799Z,31.10
2022-08-25T14:10:44.025Z,31.90
2022-08-25T14:13:17.091Z,32.30
2022-08-25T14:15:47.545Z,32.40
2022-08-25T14:18:21.718Z,32.00
2022-08-25T14:20:57.536Z,32.10
2022-08-25T14:23:27.687Z,31.90
2022-08-25T14:25:58.037Z,32.40
2022-08-25T14:28:30.301Z,32.30
2022-08-25T14:31:02.179Z,31.50
2022-08-25T14:33:41.114Z,32.00
2022-08-25T14:36:10.404Z,31.60
2022-08-25T14:38:41.200Z,32.30
2022-08-25T14:41:12.317Z,32.00
2022-08-25T14:43:41.853Z,32.10
2022-08-25T14:46:16.236Z,31.80
2022-08-25T14:48:46.856Z,31.40
2022-08-25T14:51:17.259Z,31.60
2022-08-25T14:53:45.739Z,32.00
2022-08-25T14:56:14.355Z,31.80
2022-08-25T14:58:51.582Z,32.00
2022-08-25T15:01:29.148Z,31.50
2022-08-25T15:04:02.758Z,31.80
2022-08-25T15:06:31.482Z,32.30
2022-08-25T15:09:11.658Z,32.70
2022-08-25T15:11:44.750Z,32.50
2022-08-25T15:14:17.498Z,32.60
2022-08-25T15:16:48.086Z,32.20
2022-08-25T15:19:20.249Z,32.10
2022-08-25T15:21:49.678Z,32.70
2022-08-25T15:24:19.522Z,32.50
2022-08-25T15:29:27.256Z,31.80
2022-08-25T15:31:55.717Z,31.60
2022-08-25T15:34:23.892Z,31.80
2022-08-25T15:36:52.292Z,31.60
2022-08-25T15:39:21.268Z,31.40
2022-08-25T15:41:52.135Z,31.60
2022-08-25T15:44:20.842Z,32.10
2022-08-25T15:46:50.534Z,31.90
2022-08-25T15:49:20.877Z,31.40
2022-08-25T15:51:52.347Z,31.20
2022-08-25T15:54:21.564Z,31.40
2022-08-25T15:56:49.709Z,31.00
2022-08-25T15:59:18.082Z,31.00
2022-08-25T16:01:53.579Z,30.80
2022-08-25T16:04:22.376Z,30.60
2022-08-25T16:06:51.873Z,30.70
2022-08-25T16:09:23.048Z,30.90
2022-08-25T16:11:56.721Z,31.40
2022-08-25T16:14:27.713Z,31.60
2022-08-25T16:16:58.447Z,31.90
2022-08-25T16:19:28.199Z,32.20
2022-08-25T16:21:56.492Z,31.60
2022-08-25T16:24:25.036Z,31.90
2022-08-25T16:26:55.796Z,31.50
2022-08-25T16:29:24.267Z,31.80
2022-08-25T16:31:53.469Z,31.80
2022-08-25T16:34:28.744Z,31.60
2022-08-25T16:36:59.075Z,31.50
2022-08-25T16:39:27.738Z,31.60
2022-08-25T16:41:55.938Z,31.80
2022-08-25T16:44:24.367Z,31.80
2022-08-25T16:46:55.308Z,31.60
2022-08-25T16:49:25.878Z,31.40
2022-08-25T16:51:57.502Z,31.40
2022-08-25T16:54:45.554Z,31.40
2022-08-25T16:57:14.286Z,31.20
2022-08-25T16:59:43.929Z,31.30
2022-08-25T17:02:12.480Z,31.30
2022-08-25T17:04:42.494Z,30.80
2022-08-25T17:07:10.624Z,30.70
2022-08-25T17:09:38.791Z,30.10
2022-08-25T17:12:09.232Z,29.40
2022-08-25T17:14:37.447Z,28.70
2022-08-25T17:17:07.095Z,28.20
2022-08-25T17:19:35.622Z,27.90
2022-08-25T17:22:08.462Z,27.60
2022-08-25T17:24:37.372Z,27.40
2022-08-25T17:27:09.145Z,27.10
2022-08-25T17:29:37.377Z,26.80
2022-08-25T17:32:06.137Z,26.70
2022-08-25T17:34:36.553Z,26.40
2022-08-25T17:37:07.512Z,26.20
2022-08-25T17:42:06.434Z,26.00
2022-08-25T17:44:39.408Z,25.60
2022-08-25T17:47:08.334Z,25.30
2022-08-25T17:49:39.151Z,25.10
2022-08-25T17:52:09.114Z,24.90
2022-08-25T18:52:38.929Z,24.70
2022-08-25T18:55:09.817Z,21.40
2022-08-25T19:02:40.974Z,21.20
